createdAt,value
2018-03-08T00:00:52.891Z,98224.03
2018-03-08T00:03:19.883Z,98210.31
2018-03-08T00:05:46.150Z,98223.81
2018-03-08T00:08:12.391Z,98234.47
2018-03-08T00:10:39.383Z,98231.05
2018-03-08T00:13:05.635Z,98233.47
2018-03-08T00:15:31.930Z,98235.62
2018-03-08T00:17:58.189Z,98233.37
2018-03-08T00:20:24.453Z,98239.87
2018-03-08T00:22:51.420Z,98241.31
2018-03-08T00:25:17.713Z,98247.52
2018-03-08T00:27:44.010Z,98254.97
2018-03-08T00:30:10.286Z,98252.37
2018-03-08T00:32:37.322Z,98256.39
2018-03-08T00:35:03.596Z,98249.24
2018-03-08T00:37:29.868Z,98253.55
2018-03-08T00:39:56.164Z,98256.91
2018-03-08T00:42:22.417Z,98257.81
2018-03-08T00:44:48.689Z,98258.91
2018-03-08T00:47:16.645Z,98260.64
2018-03-08T00:49:42.941Z,98267.36
2018-03-08T00:52:09.909Z,98265.21
2018-03-08T00:54:36.139Z,98265.50
2018-03-08T00:57:02.437Z,98266.99
2018-03-08T00:59:28.707Z,98273.93
2018-03-08T01:01:54.940Z,98275.33
2018-03-08T01:04:21.163Z,98274.02
2018-03-08T01:06:47.425Z,98272.31
2018-03-08T01:09:13.697Z,98271.31
2018-03-08T01:11:40.731Z,98275.05
2018-03-08T01:14:07.051Z,98276.21
2018-03-08T01:16:33.327Z,98276.23
2018-03-08T01:18:59.664Z,98271.09
2018-03-08T01:21:25.965Z,98273.16
2018-03-08T01:23:52.237Z,98275.10
2018-03-08T01:26:19.249Z,98275.59
2018-03-08T01:28:45.484Z,98275.47
2018-03-08T01:31:11.764Z,98276.08
2018-03-08T01:33:38.026Z,98277.36
2018-03-08T01:36:04.317Z,98273.34
2018-03-08T01:38:30.586Z,98279.53
2018-03-08T01:40:56.856Z,98273.67
2018-03-08T01:43:23.893Z,98277.25
2018-03-08T01:45:50.222Z,98278.80
2018-03-08T01:48:16.522Z,98272.41
2018-03-08T01:50:42.783Z,98275.12
2018-03-08T01:53:09.083Z,98274.59
2018-03-08T01:55:35.349Z,98274.80
2018-03-08T01:58:01.609Z,98271.62
2018-03-08T02:00:27.905Z,98278.60
2018-03-08T02:02:54.205Z,98279.44
2018-03-08T02:05:20.495Z,98278.60
2018-03-08T02:07:47.499Z,98282.21
2018-03-08T02:10:13.771Z,98286.73
2018-03-08T02:12:40.875Z,98290.73
2018-03-08T02:15:07.184Z,98293.70
2018-03-08T02:17:33.484Z,98292.53
2018-03-08T02:20:00.482Z,98289.52
2018-03-08T02:22:26.732Z,98290.52
2018-03-08T02:24:53.017Z,98296.69
2018-03-08T02:27:42.366Z,98303.38
2018-03-08T02:30:11.714Z,98307.75
2018-03-08T02:32:50.816Z,98309.70
2018-03-08T02:35:17.210Z,98308.88
2018-03-08T02:37:44.195Z,98304.68
2018-03-08T02:40:10.427Z,98308.22
2018-03-08T02:42:36.677Z,98314.08
2018-03-08T02:45:02.913Z,98311.25
2018-03-08T02:47:29.207Z,98310.19
2018-03-08T02:49:55.450Z,98309.18
2018-03-08T02:52:21.767Z,98320.61
2018-03-08T02:54:48.030Z,98320.09
2018-03-08T02:57:14.371Z,98324.05
2018-03-08T02:59:40.629Z,98322.22
2018-03-08T03:02:07.821Z,98321.14
2018-03-08T03:04:34.096Z,98314.98
2018-03-08T03:07:00.390Z,98317.28
2018-03-08T03:09:26.619Z,98316.63
2018-03-08T03:11:52.855Z,98327.88
2018-03-08T03:14:19.111Z,98315.31
2018-03-08T03:16:45.423Z,98317.91
2018-03-08T03:19:12.452Z,98313.78
2018-03-08T03:21:38.756Z,98325.38
2018-03-08T03:24:05.010Z,98306.66
2018-03-08T03:26:31.239Z,98314.05
2018-03-08T03:28:57.507Z,98315.27
2018-03-08T03:31:23.739Z,98308.45
2018-03-08T03:33:50.004Z,98313.75
2018-03-08T03:36:23.111Z,98316.44
2018-03-08T03:38:49.351Z,98321.95
2018-03-08T03:41:15.575Z,98324.80
2018-03-08T03:43:42.127Z,98340.55
2018-03-08T03:46:08.463Z,98330.79
2018-03-08T03:48:34.723Z,98336.23
2018-03-08T03:51:02.415Z,98349.70
2018-03-08T03:53:28.677Z,98354.14
2018-03-08T03:55:54.948Z,98349.09
2018-03-08T03:58:21.962Z,98350.58
2018-03-08T04:00:48.247Z,98358.28
2018-03-08T04:03:14.493Z,98355.80
2018-03-08T04:05:40.772Z,98358.00
2018-03-08T04:08:07.036Z,98350.23
2018-03-08T04:10:33.270Z,98356.09
2018-03-08T04:12:59.512Z,98199.91
2018-03-08T04:15:25.756Z,98363.48
2018-03-08T04:17:52.049Z,98361.95
2018-03-08T04:20:19.033Z,98368.64
2018-03-08T04:22:45.330Z,98371.55
2018-03-08T04:25:11.584Z,98376.82
2018-03-08T04:27:37.818Z,98379.90
2018-03-08T04:30:04.051Z,98373.38
2018-03-08T04:32:30.291Z,98367.17
2018-03-08T04:34:56.711Z,98373.39
2018-03-08T04:37:23.108Z,98374.80
2018-03-08T04:39:49.472Z,98377.25
2018-03-08T04:42:15.869Z,98378.55
2018-03-08T04:44:43.022Z,98384.35
2018-03-08T04:47:10.168Z,98378.91
2018-03-08T04:49:37.287Z,98378.20
2018-03-08T04:52:03.686Z,98378.84
2018-03-08T04:54:30.129Z,98384.81
2018-03-08T04:56:56.556Z,98386.19
2018-03-08T04:59:23.032Z,98387.95
2018-03-08T05:01:49.474Z,98384.23
2018-03-08T05:04:16.648Z,98381.08
2018-03-08T05:06:43.044Z,98380.95
2018-03-08T05:09:09.439Z,98387.39
2018-03-08T05:11:35.835Z,98386.00
2018-03-08T05:14:02.282Z,98392.33
2018-03-08T05:16:33.690Z,98380.63
2018-03-08T05:19:00.096Z,98391.05
2018-03-08T05:21:26.480Z,98390.59
2018-03-08T05:23:53.600Z,98393.46
2018-03-08T05:26:19.972Z,98412.67
2018-03-08T05:28:47.136Z,98406.67
2018-03-08T05:31:13.554Z,98410.58
2018-03-08T05:33:40.682Z,98423.86
2018-03-08T05:36:07.048Z,98428.55
2018-03-08T05:38:33.487Z,98431.95
2018-03-08T05:40:59.868Z,98433.43
2018-03-08T05:43:26.243Z,98436.16
2018-03-08T05:45:52.627Z,98442.64
2018-03-08T05:48:19.102Z,98444.63
2018-03-08T05:50:46.095Z,98447.44
2018-03-08T05:53:12.356Z,98457.70
2018-03-08T05:55:38.666Z,98456.67
2018-03-08T05:58:04.932Z,98457.08
2018-03-08T06:00:31.947Z,98456.72
2018-03-08T06:02:58.275Z,98455.73
2018-03-08T06:05:24.587Z,98473.05
2018-03-08T06:07:50.923Z,98462.87
2018-03-08T06:10:17.204Z,98465.22
2018-03-08T06:12:43.526Z,98469.09
2018-03-08T06:15:10.563Z,98473.30
2018-03-08T06:17:36.812Z,98479.81
2018-03-08T06:20:03.836Z,98485.44
2018-03-08T06:22:30.121Z,98489.56
2018-03-08T06:24:56.396Z,98488.51
2018-03-08T06:27:22.680Z,98506.29
2018-03-08T06:29:48.924Z,98509.36
2018-03-08T06:32:15.183Z,98515.36
2018-03-08T06:34:41.500Z,98509.77
2018-03-08T06:37:07.760Z,98506.98
2018-03-08T06:39:34.794Z,98511.52
2018-03-08T06:42:01.122Z,98518.02
2018-03-08T06:44:27.394Z,98522.16
2018-03-08T06:46:53.747Z,98524.54
2018-03-08T06:49:20.051Z,98526.09
2018-03-08T06:51:46.350Z,98532.97
2018-03-08T06:54:12.608Z,98531.41
2018-03-08T06:56:38.938Z,98534.02
2018-03-08T06:59:05.238Z,98543.94
2018-03-08T07:01:31.615Z,98554.09
2018-03-08T07:03:57.863Z,98546.72
2018-03-08T07:06:24.165Z,98555.27
2018-03-08T07:08:50.440Z,98559.53
2018-03-08T07:11:16.697Z,98565.55
2018-03-08T07:13:43.134Z,98566.76
2018-03-08T07:16:10.328Z,98573.16
2018-03-08T07:18:36.741Z,98571.00
2018-03-08T07:21:03.174Z,98576.27
2018-03-08T07:23:29.618Z,98572.68
2018-03-08T07:25:55.882Z,98576.06
2018-03-08T07:28:22.140Z,98584.52
2018-03-08T07:30:48.403Z,98586.59
2018-03-08T07:33:14.644Z,98577.79
2018-03-08T07:35:40.936Z,98586.44
2018-03-08T07:38:08.003Z,98582.27
2018-03-08T07:40:34.261Z,98591.98
2018-03-08T07:43:00.513Z,98594.05
2018-03-08T07:45:26.775Z,98597.20
2018-03-08T07:47:54.039Z,98600.86
2018-03-08T07:50:21.020Z,98586.01
2018-03-08T07:52:47.243Z,98593.59
2018-03-08T07:55:13.489Z,98602.28
2018-03-08T07:57:39.778Z,98607.84
2018-03-08T08:00:06.058Z,98618.05
2018-03-08T08:02:32.316Z,98608.72
2018-03-08T08:05:18.188Z,98623.65
2018-03-08T08:08:03.892Z,98609.98
2018-03-08T08:10:30.933Z,98623.61
2018-03-08T08:12:57.208Z,98633.58
2018-03-08T08:15:23.519Z,98632.62
2018-03-08T08:17:49.824Z,98634.20
2018-03-08T08:20:16.105Z,98633.66
2018-03-08T08:22:42.370Z,98634.50
2018-03-08T08:25:08.637Z,98633.94
2018-03-08T08:27:35.642Z,98642.48
2018-03-08T08:30:01.897Z,98646.57
2018-03-08T08:32:28.931Z,98650.47
2018-03-08T08:34:55.213Z,98650.20
2018-03-08T08:37:21.489Z,98661.96
2018-03-08T08:39:47.762Z,98659.54
2018-03-08T08:42:14.007Z,98662.27
2018-03-08T08:44:40.269Z,98671.34
2018-03-08T08:47:06.513Z,98662.89
2018-03-08T08:49:32.754Z,98665.82
2018-03-08T08:51:59.745Z,98659.11
2018-03-08T08:54:26.063Z,98670.98
2018-03-08T08:56:52.329Z,98679.73
2018-03-08T08:59:18.589Z,98686.84
2018-03-08T09:01:45.620Z,98685.97
2018-03-08T09:04:11.904Z,98675.52
2018-03-08T09:06:38.164Z,98694.08
2018-03-08T09:09:04.448Z,98697.52
2018-03-08T09:11:30.710Z,98698.34
2018-03-08T09:13:56.992Z,98694.34
2018-03-08T09:16:24.020Z,98699.75
2018-03-08T09:18:50.308Z,98706.67
2018-03-08T09:21:16.600Z,98712.11
2018-03-08T09:23:43.649Z,98700.80
2018-03-08T09:26:10.675Z,98697.58
2018-03-08T09:28:36.974Z,98700.09
2018-03-08T09:31:03.231Z,98694.05
2018-03-08T09:33:29.527Z,98689.21
2018-03-08T09:35:55.797Z,98691.46
2018-03-08T09:38:22.087Z,98662.51
2018-03-08T09:40:48.356Z,98705.21
2018-03-08T09:43:14.655Z,98696.23
2018-03-08T09:45:40.928Z,98710.31
2018-03-08T09:48:07.222Z,98707.42
2018-03-08T09:50:33.515Z,98709.44
2018-03-08T09:52:59.803Z,98718.69
2018-03-08T09:55:26.045Z,98706.22
2018-03-08T09:57:52.341Z,98717.83
2018-03-08T10:00:18.603Z,98713.84
2018-03-08T10:02:44.943Z,98721.70
2018-03-08T10:05:12.039Z,98714.98
2018-03-08T10:07:38.374Z,98722.10
2018-03-08T10:10:04.652Z,98736.45
2018-03-08T10:12:31.726Z,98732.93
2018-03-08T10:14:58.033Z,98720.77
2018-03-08T10:17:25.068Z,98741.85
2018-03-08T10:19:51.377Z,98743.72
2018-03-08T10:22:17.674Z,98732.70
2018-03-08T10:24:43.965Z,98752.91
2018-03-08T10:27:10.318Z,98782.53
2018-03-08T10:29:37.347Z,98769.17
2018-03-08T10:32:04.405Z,98756.78
2018-03-08T10:34:31.428Z,98773.87
2018-03-08T10:36:57.773Z,98770.42
2018-03-08T10:41:50.433Z,98781.51
2018-03-08T10:44:16.714Z,98781.52
2018-03-08T10:46:43.032Z,98774.68
2018-03-08T10:49:09.293Z,98784.13
2018-03-08T10:51:35.865Z,98783.50
2018-03-08T10:54:02.167Z,98783.13
2018-03-08T10:56:28.500Z,98794.72
2018-03-08T10:58:54.832Z,98796.73
2018-03-08T11:01:25.198Z,98788.59
2018-03-08T11:03:54.044Z,98769.93
2018-03-08T11:06:20.565Z,98780.86
2018-03-08T11:08:46.939Z,98782.13
2018-03-08T11:11:20.917Z,98778.12
2018-03-08T11:13:47.226Z,98795.98
2018-03-08T11:16:13.553Z,98783.44
2018-03-08T11:18:39.858Z,98778.35
2018-03-08T11:21:06.864Z,98768.82
2018-03-08T11:23:33.237Z,98772.88
2018-03-08T11:25:59.548Z,98779.77
2018-03-08T11:28:26.549Z,98784.75
2018-03-08T11:30:52.861Z,98782.25
2018-03-08T11:33:19.149Z,98782.05
2018-03-08T11:35:45.539Z,98783.03
2018-03-08T11:38:18.922Z,98781.79
2018-03-08T11:40:45.250Z,98793.89
2018-03-08T11:43:11.584Z,98796.94
2018-03-08T11:45:37.920Z,98790.09
2018-03-08T11:48:04.194Z,98805.36
2018-03-08T11:50:30.514Z,98784.84
2018-03-08T11:52:56.849Z,98789.91
2018-03-08T11:55:23.178Z,98792.57
2018-03-08T11:57:49.480Z,98789.63
2018-03-08T12:00:15.875Z,98787.44
2018-03-08T12:02:42.200Z,98792.98
2018-03-08T12:05:08.606Z,98781.48
2018-03-08T12:07:34.941Z,98783.40
2018-03-08T12:10:01.273Z,98785.06
2018-03-08T12:12:27.562Z,98786.31
2018-03-08T12:14:53.849Z,98794.41
2018-03-08T12:17:20.121Z,98778.34
2018-03-08T12:19:46.379Z,98777.16
2018-03-08T12:22:12.665Z,98789.68
2018-03-08T12:24:39.737Z,98782.89
2018-03-08T12:27:05.993Z,98782.77
2018-03-08T12:29:32.296Z,98776.50
2018-03-08T12:31:58.619Z,98777.65
2018-03-08T12:34:24.897Z,98764.90
2018-03-08T12:36:51.237Z,98762.27
2018-03-08T12:39:17.561Z,98759.31
2018-03-08T12:41:43.877Z,98757.38
2018-03-08T12:44:10.164Z,98767.22
2018-03-08T12:46:36.501Z,98770.61
2018-03-08T12:49:02.814Z,98752.11
2018-03-08T12:51:29.905Z,98748.73
2018-03-08T12:53:56.230Z,98756.00
2018-03-08T12:56:22.522Z,98753.43
2018-03-08T12:58:49.568Z,98752.91
2018-03-08T13:01:16.632Z,98747.73
2018-03-08T13:03:43.725Z,98758.54
2018-03-08T13:06:10.024Z,98754.23
2018-03-08T13:08:36.603Z,98747.28
2018-03-08T13:11:02.901Z,98760.08
2018-03-08T13:13:29.201Z,98748.20
2018-03-08T13:15:56.245Z,98752.20
2018-03-08T13:18:23.291Z,98745.23
2018-03-08T13:20:50.342Z,98754.24
2018-03-08T13:23:17.388Z,98737.63
2018-03-08T13:25:44.491Z,98742.50
2018-03-08T13:28:10.833Z,98747.05
2018-03-08T13:30:37.128Z,98735.09
2018-03-08T13:33:03.430Z,98736.08
2018-03-08T13:35:30.572Z,98732.02
2018-03-08T13:37:57.588Z,98743.50
2018-03-08T13:40:23.899Z,98735.05
2018-03-08T13:42:50.168Z,98728.13
2018-03-08T13:45:16.462Z,98734.77
2018-03-08T13:47:42.759Z,98738.09
2018-03-08T13:50:09.814Z,98755.92
2018-03-08T13:52:36.182Z,98750.36
2018-03-08T13:55:02.535Z,98750.01
2018-03-08T13:57:28.826Z,98744.30
2018-03-08T13:59:55.142Z,98735.98
2018-03-08T14:02:21.445Z,98746.05
2018-03-08T14:04:48.536Z,98746.42
2018-03-08T14:07:14.865Z,98736.51
2018-03-08T14:09:41.162Z,98732.45
2018-03-08T14:12:08.180Z,98732.55
2018-03-08T14:14:35.246Z,98725.28
2018-03-08T14:17:02.321Z,98729.63
2018-03-08T14:19:28.598Z,98725.55
2018-03-08T14:21:54.908Z,98723.16
2018-03-08T14:24:21.224Z,98731.75
2018-03-08T14:26:47.603Z,98722.12
2018-03-08T14:29:13.950Z,98733.56
2018-03-08T14:31:40.249Z,98721.55
2018-03-08T14:34:06.549Z,98719.68
2018-03-08T14:36:32.846Z,98714.03
2018-03-08T14:38:59.904Z,98722.20
2018-03-08T14:41:26.951Z,98707.65
2018-03-08T14:43:53.985Z,98704.86
2018-03-08T14:46:21.006Z,98702.28
2018-03-08T14:48:47.303Z,98720.42
2018-03-08T14:51:13.628Z,98711.66
2018-03-08T14:53:39.932Z,98720.19
2018-03-08T14:56:06.258Z,98709.23
2018-03-08T14:58:33.278Z,98713.13
2018-03-08T15:00:59.916Z,98713.03
2018-03-08T15:03:26.250Z,98715.73
2018-03-08T15:05:52.486Z,98708.42
2018-03-08T15:08:18.765Z,98707.15
2018-03-08T15:10:45.051Z,98697.92
2018-03-08T15:13:18.176Z,98698.49
2018-03-08T15:15:56.879Z,98697.77
2018-03-08T15:21:25.129Z,98702.05
2018-03-08T15:23:51.429Z,98710.23
2018-03-08T15:26:17.721Z,98700.09
2018-03-08T15:28:44.146Z,98704.48
2018-03-08T15:31:10.445Z,98693.80
2018-03-08T15:33:36.711Z,98687.44
2018-03-08T15:36:03.068Z,98688.63
2018-03-08T15:38:30.119Z,98689.03
2018-03-08T15:40:57.276Z,98703.55
2018-03-08T15:43:24.316Z,98691.52
2018-03-08T15:45:51.344Z,98698.26
2018-03-08T15:48:17.686Z,98695.09
2018-03-08T15:50:44.032Z,98689.30
2018-03-08T15:53:11.090Z,98677.03
2018-03-08T15:55:37.394Z,98691.22
2018-03-08T15:58:03.800Z,98684.83
2018-03-08T16:00:30.174Z,98681.05
2018-03-08T16:02:56.400Z,98684.88
2018-03-08T16:05:22.693Z,98690.46
2018-03-08T16:11:31.322Z,98694.98
2018-03-08T16:13:57.607Z,98693.34
2018-03-08T16:16:24.663Z,98690.81
2018-03-08T16:18:51.759Z,98688.89
2018-03-08T16:21:18.045Z,98696.48
2018-03-08T16:23:45.095Z,98690.06
2018-03-08T16:26:11.391Z,98685.95
2018-03-08T16:28:37.702Z,98684.75
2018-03-08T16:31:04.033Z,98679.61
2018-03-08T16:33:30.381Z,98681.20
2018-03-08T16:35:56.764Z,98679.30
2018-03-08T16:38:23.087Z,98681.75
2018-03-08T16:40:49.383Z,98672.44
2018-03-08T16:43:15.800Z,98678.05
2018-03-08T16:45:42.119Z,98677.78
2018-03-08T16:48:08.518Z,98683.34
2018-03-08T16:50:34.799Z,98677.44
2018-03-08T16:53:01.213Z,98676.81
2018-03-08T16:55:27.541Z,98677.91
2018-03-08T16:57:53.895Z,98668.50
2018-03-08T17:00:20.258Z,98676.69
2018-03-08T17:02:46.545Z,98675.77
2018-03-08T17:05:12.892Z,98679.12
2018-03-08T17:07:39.212Z,98680.77
2018-03-08T17:10:05.534Z,98677.80
2018-03-08T17:12:31.869Z,98673.67
2018-03-08T17:14:58.216Z,98672.83
2018-03-08T17:17:24.565Z,98677.22
2018-03-08T17:19:51.776Z,98675.20
2018-03-08T17:22:18.175Z,98673.02
2018-03-08T17:24:44.571Z,98675.04
2018-03-08T17:27:11.110Z,98672.64
2018-03-08T17:29:45.410Z,98676.63
2018-03-08T17:32:11.756Z,98666.52
2018-03-08T17:34:38.793Z,98666.56
2018-03-08T17:37:05.115Z,98664.78
2018-03-08T17:39:31.446Z,98665.59
2018-03-08T17:41:58.533Z,98661.45
2018-03-08T17:44:25.665Z,98668.44
2018-03-08T17:46:51.976Z,98670.48
2018-03-08T17:49:18.351Z,98660.30
2018-03-08T17:51:45.447Z,98669.44
2018-03-08T17:54:11.749Z,98668.10
2018-03-08T17:56:38.127Z,98672.23
2018-03-08T17:59:04.474Z,98670.08
2018-03-08T18:01:30.806Z,98673.12
2018-03-08T18:03:57.127Z,98682.33
2018-03-08T18:06:23.466Z,98678.52
2018-03-08T18:08:49.768Z,98673.44
2018-03-08T18:11:16.121Z,98666.02
2018-03-08T18:13:42.477Z,98667.77
2018-03-08T18:16:09.611Z,98663.38
2018-03-08T18:47:54.452Z,98653.77
2018-03-08T18:50:20.783Z,98651.52
2018-03-08T18:52:47.089Z,98648.86
2018-03-08T18:55:13.407Z,98650.41
2018-03-08T18:57:39.709Z,98641.42
2018-03-08T19:00:05.989Z,98649.63
2018-03-08T19:02:32.293Z,98649.27
2018-03-08T19:04:59.410Z,98647.05
2018-03-08T19:07:25.736Z,98636.87
2018-03-08T19:09:52.051Z,98627.52
2018-03-08T19:12:18.365Z,98618.80
2018-03-08T19:14:44.704Z,98621.41
2018-03-08T19:17:11.036Z,98616.51
2018-03-08T19:19:37.354Z,98610.18
2018-03-08T19:22:03.665Z,98604.48
2018-03-08T19:24:29.996Z,98608.08
2018-03-08T19:26:56.375Z,98606.53
2018-03-08T19:29:22.748Z,98600.80
2018-03-08T19:31:49.816Z,98599.17
2018-03-08T19:34:16.244Z,98592.23
2018-03-08T19:36:42.683Z,98597.97
2018-03-08T19:39:09.118Z,98598.09
2018-03-08T19:41:35.534Z,98604.80
2018-03-08T19:44:02.607Z,98593.34
2018-03-08T19:46:28.919Z,98591.28
2018-03-08T19:48:56.039Z,98595.31
2018-03-08T19:51:22.335Z,98582.09
2018-03-08T19:53:48.651Z,98587.48
2018-03-08T19:56:14.994Z,98585.50
2018-03-08T20:03:16.580Z,98583.80
2018-03-08T20:05:43.001Z,98579.16
2018-03-08T20:08:09.542Z,98577.86
2018-03-08T20:10:35.985Z,98577.95
2018-03-08T20:13:02.464Z,98571.34
2018-03-08T20:15:29.554Z,98568.13
2018-03-08T20:17:55.966Z,98566.28
2018-03-08T20:20:23.080Z,98568.06
2018-03-08T20:22:49.420Z,98574.59
2018-03-08T20:25:15.799Z,98562.09
2018-03-08T20:27:42.199Z,98570.89
2018-03-08T20:30:09.291Z,98564.83
2018-03-08T20:32:35.614Z,98565.30
2018-03-08T20:35:01.977Z,98564.83
2018-03-08T20:37:28.333Z,98553.33
2018-03-08T20:39:54.750Z,98551.81
2018-03-08T20:42:21.257Z,98557.53
2018-03-08T20:44:47.665Z,98549.22
2018-03-08T20:47:14.013Z,98548.64
2018-03-08T20:49:40.437Z,98555.92
2018-03-08T20:52:06.839Z,98547.97
2018-03-08T20:54:33.905Z,98546.62
2018-03-08T20:57:00.956Z,98537.84
2018-03-08T20:59:27.260Z,98540.31
2018-03-08T21:01:53.554Z,98536.52
2018-03-08T21:04:19.929Z,98527.36
2018-03-08T21:06:48.679Z,98533.52
2018-03-08T21:09:24.612Z,98524.96
2018-03-08T21:11:50.946Z,98529.06
2018-03-08T21:14:17.250Z,98528.55
2018-03-08T21:16:44.351Z,98527.27
2018-03-08T21:19:10.779Z,98531.84
2018-03-08T21:21:37.265Z,98526.30
2018-03-08T21:24:03.691Z,98522.53
2018-03-08T21:26:30.782Z,98521.50
2018-03-08T21:28:57.128Z,98525.30
2018-03-08T21:31:23.519Z,98527.66
2018-03-08T21:33:49.792Z,98525.16
2018-03-08T21:36:16.835Z,98522.78
2018-03-08T21:38:43.211Z,98524.72
2018-03-08T21:41:10.221Z,98519.34
2018-03-08T21:43:36.541Z,98511.56
2018-03-08T21:46:02.833Z,98506.36
2018-03-08T21:48:29.866Z,98498.58
2018-03-08T21:50:56.157Z,98490.00
2018-03-08T21:53:22.450Z,98493.09
2018-03-08T21:55:48.720Z,98494.98
2018-03-08T21:58:15.044Z,98499.33
2018-03-08T22:00:41.368Z,98488.20
2018-03-08T22:03:07.682Z,98493.45
2018-03-08T22:05:34.022Z,98505.84
2018-03-08T22:08:00.340Z,98536.16
2018-03-08T22:10:26.608Z,98528.52
2018-03-08T22:12:52.900Z,98514.94
2018-03-08T22:15:19.186Z,98515.25
2018-03-08T22:17:45.503Z,98510.31
2018-03-08T22:20:11.812Z,98510.31
2018-03-08T22:22:38.114Z,98501.92
2018-03-08T22:25:04.573Z,98479.59
2018-03-08T22:27:30.881Z,98466.61
2018-03-08T22:29:57.192Z,98479.77
2018-03-08T22:32:24.300Z,98474.52
2018-03-08T22:34:50.619Z,98475.17
2018-03-08T22:37:16.949Z,98464.09
2018-03-08T22:39:43.244Z,98484.55
2018-03-08T22:42:10.257Z,98489.00
2018-03-08T22:44:36.571Z,98502.50
2018-03-08T22:47:03.196Z,98488.09
2018-03-08T22:49:29.558Z,98482.22
2018-03-08T22:51:55.887Z,98480.32
2018-03-08T22:54:22.185Z,98489.83
2018-03-08T22:56:48.480Z,98487.72
2018-03-08T22:59:15.502Z,98482.55
2018-03-08T23:04:59.487Z,98510.39
2018-03-08T23:07:26.569Z,98516.00
2018-03-08T23:09:52.868Z,98525.98
2018-03-08T23:12:19.840Z,98529.93
2018-03-08T23:14:46.194Z,98537.36
2018-03-08T23:17:12.504Z,98540.77
2018-03-08T23:19:38.812Z,98556.56
2018-03-08T23:22:05.836Z,98543.63
2018-03-08T23:24:32.116Z,98564.08
2018-03-08T23:26:58.386Z,98606.05
2018-03-08T23:29:24.639Z,98595.14
2018-03-08T23:31:51.648Z,98595.66
2018-03-08T23:34:17.959Z,98589.59
2018-03-08T23:36:44.245Z,98568.69
2018-03-08T23:39:10.521Z,98578.59
2018-03-08T23:41:36.830Z,98598.28
2018-03-08T23:44:03.125Z,98612.22
2018-03-08T23:46:29.387Z,98620.78
2018-03-08T23:48:55.667Z,98627.03
2018-03-08T23:51:21.989Z,98653.55
2018-03-08T23:53:48.287Z,98640.64
2018-03-08T23:56:14.592Z,98636.55
2018-03-08T23:58:41.632Z,98654.88
